Time;durP1;ratioP1;P1;durP2;ratioP2;P2;SDS_P1;SDS_P2;PMS_P1;PMS_P2;Temp;Humidity;BMP_temperature;BMP_pressure;BME280_temperature;BME280_humidity;BME280_pressure;Samples;Min_cycle;Max_cycle;Signal;HPM_P1;HPM_P2
2023/08/31 00:02:09;;;;;;;8.00;4.50;;;13.60;99.90;;;;;;5038329;28;20221;-81
2023/08/31 00:04:36;;;;;;;6.38;3.97;;;13.70;99.90;;;;;;5036958;28;20198;-81
2023/08/31 00:07:06;;;;;;;7.35;4.05;;;13.70;99.90;;;;;;5037107;28;20201;-81
2023/08/31 00:09:34;;;;;;;6.63;4.53;;;13.80;99.90;;;;;;5030472;28;20198;-81
2023/08/31 00:12:02;;;;;;;9.45;4.57;;;13.70;99.90;;;;;;5043269;28;20225;-81
2023/08/31 00:14:57;;;;;;;8.15;4.03;;;13.70;99.90;;;;;;5034641;28;20710;-81
2023/08/31 00:17:25;;;;;;;5.72;3.95;;;13.80;99.90;;;;;;5034102;28;20233;-81
2023/08/31 00:19:52;;;;;;;6.03;4.20;;;13.80;99.90;;;;;;5026523;28;20199;-81
2023/08/31 00:22:21;;;;;;;5.88;3.75;;;13.70;99.90;;;;;;5050799;28;20577;-81
2023/08/31 00:24:48;;;;;;;4.72;3.80;;;13.70;99.90;;;;;;5032458;28;20206;-81
2023/08/31 00:27:17;;;;;;;6.85;3.65;;;13.70;99.90;;;;;;5033843;28;20205;-81
2023/08/31 00:29:49;;;;;;;7.32;4.63;;;13.70;99.90;;;;;;5028767;28;20221;-81
2023/08/31 00:32:16;;;;;;;8.07;4.68;;;13.70;99.90;;;;;;5029276;28;20223;-81
2023/08/31 00:34:45;;;;;;;8.00;4.32;;;13.60;99.90;;;;;;5032312;28;20195;-81
2023/08/31 00:37:13;;;;;;;8.75;4.28;;;13.70;99.90;;;;;;5035631;28;20217;-81
2023/08/31 00:39:43;;;;;;;5.10;3.65;;;13.60;99.90;;;;;;5031939;28;20548;-81
2023/08/31 00:42:10;;;;;;;7.93;4.30;;;13.70;99.90;;;;;;5044914;28;20226;-81
2023/08/31 00:44:38;;;;;;;7.53;4.22;;;13.60;99.90;;;;;;5035468;28;20213;-81
2023/08/31 00:47:06;;;;;;;7.75;4.53;;;13.70;99.90;;;;;;5049665;22;20885;-80
2023/08/31 00:49:34;;;;;;;5.63;3.90;;;13.50;99.90;;;;;;5047715;28;20666;-81
2023/08/31 00:52:02;;;;;;;8.45;4.45;;;13.40;99.90;;;;;;5028861;28;20559;-81
2023/08/31 00:54:31;;;;;;;8.90;3.72;;;13.40;99.90;;;;;;5037581;28;20217;-81
2023/08/31 00:56:59;;;;;;;7.82;4.18;;;13.50;99.90;;;;;;5036645;28;20217;-81
2023/08/31 00:59:27;;;;;;;4.07;3.35;;;13.60;99.90;;;;;;5046222;28;20198;-81
2023/08/31 01:02:04;;;;;;;7.18;3.92;;;13.70;99.90;;;;;;5050343;28;20193;-81
2023/08/31 01:04:42;;;;;;;6.88;4.32;;;13.60;99.90;;;;;;5046252;28;20198;-81
2023/08/31 01:07:21;;;;;;;6.97;4.20;;;13.50;99.90;;;;;;5044072;28;20221;-81
2023/08/31 01:09:58;;;;;;;7.28;4.72;;;13.50;99.90;;;;;;5046464;28;20208;-81
2023/08/31 01:12:36;;;;;;;5.47;3.92;;;13.40;99.90;;;;;;5047659;28;20206;-81
2023/08/31 01:15:07;;;;;;;7.85;4.40;;;13.40;99.90;;;;;;5066614;28;20200;-81
2023/08/31 01:17:42;;;;;;;7.63;4.50;;;13.50;99.90;;;;;;5052764;28;20225;-80
2023/08/31 01:20:12;;;;;;;9.35;4.60;;;13.60;99.90;;;;;;5064049;28;20198;-80
2023/08/31 01:22:44;;;;;;;8.35;4.35;;;13.40;99.90;;;;;;5050993;28;20194;-82
2023/08/31 01:25:14;;;;;;;5.13;4.30;;;13.40;99.90;;;;;;5049218;28;20198;-81
2023/08/31 01:27:42;;;;;;;7.35;4.90;;;13.50;99.90;;;;;;5049145;28;20691;-81
2023/08/31 01:30:09;;;;;;;9.75;5.97;;;13.30;99.90;;;;;;5047852;28;20194;-81
2023/08/31 01:32:37;;;;;;;7.53;5.20;;;13.30;99.90;;;;;;5046688;28;20204;-80
2023/08/31 01:35:08;;;;;;;7.05;5.15;;;13.20;99.90;;;;;;5048150;28;20194;-81
2023/08/31 01:37:45;;;;;;;6.97;5.13;;;13.20;99.90;;;;;;5046127;28;20221;-81
2023/08/31 01:40:18;;;;;;;9.50;5.65;;;13.20;99.90;;;;;;5059348;28;20213;-81
2023/08/31 01:42:48;;;;;;;6.90;5.60;;;13.20;99.90;;;;;;5050330;28;20202;-81
2023/08/31 01:45:22;;;;;;;7.75;5.10;;;13.10;99.90;;;;;;5042647;28;20201;-81
2023/08/31 01:47:50;;;;;;;9.43;5.00;;;13.20;99.90;;;;;;5049661;28;20230;-81
2023/08/31 01:50:19;;;;;;;10.35;5.28;;;13.10;99.90;;;;;;5051406;28;20193;-81
2023/08/31 01:52:47;;;;;;;8.23;4.82;;;13.00;99.90;;;;;;5046225;28;20201;-81
2023/08/31 01:55:16;;;;;;;7.95;5.15;;;13.10;99.90;;;;;;5046494;28;20198;-81
2023/08/31 01:57:43;;;;;;;7.28;4.90;;;13.00;99.90;;;;;;5050734;28;20217;-81
2023/08/31 02:00:17;;;;;;;9.80;5.13;;;13.00;99.90;;;;;;5051841;28;20198;-81
2023/08/31 02:02:44;;;;;;;7.80;5.05;;;13.00;99.90;;;;;;5062824;28;20197;-81
2023/08/31 02:05:12;;;;;;;6.15;4.72;;;12.90;99.90;;;;;;5054774;28;20193;-81
2023/08/31 02:07:40;;;;;;;7.40;5.53;;;13.00;99.90;;;;;;5053957;28;20217;-81
2023/08/31 02:10:08;;;;;;;7.50;5.38;;;12.90;99.90;;;;;;5052987;28;20197;-81
2023/08/31 02:12:37;;;;;;;5.60;4.73;;;12.90;99.90;;;;;;5047748;28;20209;-81
2023/08/31 02:15:06;;;;;;;12.00;5.13;;;12.80;99.90;;;;;;5045291;28;20190;-80
2023/08/31 02:17:34;;;;;;;6.55;4.75;;;12.70;99.90;;;;;;5050140;28;20221;-81
2023/08/31 02:20:04;;;;;;;7.03;4.88;;;12.70;99.90;;;;;;5050543;28;20205;-81
2023/08/31 02:22:32;;;;;;;5.75;4.90;;;12.70;99.90;;;;;;5058072;28;20205;-81
2023/08/31 02:25:00;;;;;;;7.13;5.35;;;12.70;99.90;;;;;;5047503;28;20197;-81
2023/08/31 02:27:28;;;;;;;5.93;5.30;;;12.80;99.90;;;;;;5059845;28;20568;-81
2023/08/31 02:29:57;;;;;;;10.47;5.50;;;12.80;99.90;;;;;;5048622;28;20212;-81
2023/08/31 02:32:24;;;;;;;7.00;4.90;;;12.70;99.90;;;;;;5048627;28;20194;-81
2023/08/31 02:34:53;;;;;;;6.70;4.67;;;12.70;99.90;;;;;;5043512;28;20210;-81
2023/08/31 02:37:20;;;;;;;12.20;5.13;;;12.70;99.90;;;;;;5042986;28;20221;-80
2023/08/31 02:39:48;;;;;;;7.25;5.20;;;12.60;99.90;;;;;;5051533;28;20216;-81
2023/08/31 02:42:15;;;;;;;7.20;5.20;;;12.70;99.90;;;;;;5056074;28;20201;-81
2023/08/31 02:44:43;;;;;;;8.67;5.50;;;12.60;99.90;;;;;;5054247;28;20224;-80
2023/08/31 02:47:12;;;;;;;7.10;5.23;;;12.70;99.90;;;;;;5054126;28;20701;-81
2023/08/31 02:49:39;;;;;;;8.33;5.47;;;12.70;99.90;;;;;;5040868;28;20206;-80
2023/08/31 02:52:07;;;;;;;12.67;6.47;;;12.60;99.90;;;;;;5051024;28;20194;-81
2023/08/31 02:54:34;;;;;;;8.77;5.50;;;12.60;99.90;;;;;;5050699;28;20702;-80
2023/08/31 02:57:02;;;;;;;8.03;5.60;;;12.60;99.90;;;;;;5052372;28;20222;-80
2023/08/31 02:59:30;;;;;;;7.43;6.33;;;12.70;99.90;;;;;;5053117;28;20585;-81
2023/08/31 03:01:57;;;;;;;10.50;7.10;;;12.60;99.90;;;;;;5044289;28;20220;-80
2023/08/31 03:04:27;;;;;;;9.47;6.80;;;12.50;99.90;;;;;;5068578;28;20663;-80
2023/08/31 03:06:54;;;;;;;7.00;5.87;;;12.50;99.90;;;;;;5052389;28;20686;-80
2023/08/31 03:09:22;;;;;;;9.23;6.33;;;12.50;99.90;;;;;;5052562;28;20202;-81
2023/08/31 03:11:49;;;;;;;7.57;6.50;;;12.50;99.90;;;;;;5050134;28;20209;-80
2023/08/31 03:14:17;;;;;;;7.88;6.20;;;12.50;99.90;;;;;;5050528;28;20400;-80
2023/08/31 03:16:45;;;;;;;7.87;5.93;;;12.60;99.90;;;;;;5053367;28;20217;-80
2023/08/31 03:19:12;;;;;;;7.53;6.13;;;12.60;99.90;;;;;;5047017;28;20200;-81
2023/08/31 03:21:41;;;;;;;7.87;6.00;;;12.50;99.90;;;;;;5046215;28;20201;-80
2023/08/31 03:24:08;;;;;;;7.27;5.73;;;12.50;99.90;;;;;;5050699;28;20202;-80
2023/08/31 03:26:36;;;;;;;9.40;6.83;;;12.50;99.90;;;;;;5055175;28;20209;-80
2023/08/31 03:29:04;;;;;;;8.90;6.40;;;12.40;99.90;;;;;;5066574;28;20213;-80
2023/08/31 03:31:32;;;;;;;6.63;5.90;;;12.50;99.90;;;;;;5045060;28;20733;-80
2023/08/31 03:34:00;;;;;;;6.67;6.07;;;12.50;99.90;;;;;;5067323;28;20187;-80
2023/08/31 03:36:28;;;;;;;8.10;6.27;;;12.40;99.90;;;;;;5036958;28;20210;-80
2023/08/31 03:38:57;;;;;;;7.03;5.87;;;12.50;99.90;;;;;;5046067;28;20228;-80
2023/08/31 03:41:25;;;;;;;8.57;6.43;;;12.50;99.90;;;;;;5046981;28;20198;-79
2023/08/31 03:43:53;;;;;;;10.37;6.97;;;12.50;99.90;;;;;;5042312;28;20209;-80
2023/08/31 03:46:24;;;;;;;7.93;6.70;;;12.50;99.90;;;;;;5047517;28;20208;-80
2023/08/31 03:48:51;;;;;;;10.00;6.80;;;12.60;99.90;;;;;;5043160;28;20218;-81
2023/08/31 03:51:18;;;;;;;8.67;7.53;;;12.60;99.90;;;;;;5046774;28;20201;-81
2023/08/31 03:53:46;;;;;;;9.63;6.77;;;12.50;99.90;;;;;;5048590;28;20205;-80
2023/08/31 03:56:15;;;;;;;11.17;7.27;;;12.50;99.90;;;;;;5040996;28;20216;-80
2023/08/31 03:58:43;;;;;;;10.97;8.37;;;12.50;99.90;;;;;;5037915;28;20217;-80
2023/08/31 04:01:12;;;;;;;9.87;7.67;;;12.40;99.90;;;;;;5050114;28;20203;-80
2023/08/31 04:03:40;;;;;;;10.77;9.13;;;12.40;99.90;;;;;;5043363;28;20224;-80
2023/08/31 04:06:07;;;;;;;14.57;9.53;;;12.40;99.90;;;;;;5043958;28;20202;-80
2023/08/31 04:08:35;;;;;;;13.70;8.97;;;12.40;99.90;;;;;;5049221;28;20575;-80
2023/08/31 04:11:04;;;;;;;11.17;8.07;;;12.40;99.90;;;;;;5048312;28;20202;-80
2023/08/31 04:13:33;;;;;;;10.57;8.80;;;12.40;99.90;;;;;;5053868;28;20198;-80
2023/08/31 04:16:01;;;;;;;12.80;9.13;;;12.40;99.90;;;;;;5043792;28;20668;-80
2023/08/31 04:18:28;;;;;;;13.03;9.80;;;12.30;99.90;;;;;;5042570;28;20221;-80
2023/08/31 04:20:58;;;;;;;12.77;9.93;;;12.30;99.90;;;;;;5047129;28;20206;-80
2023/08/31 04:23:26;;;;;;;12.87;9.97;;;12.30;99.90;;;;;;5047741;28;20198;-81
2023/08/31 04:25:53;;;;;;;13.83;11.27;;;12.40;99.90;;;;;;5052775;28;20197;-80
2023/08/31 04:28:21;;;;;;;14.10;11.60;;;12.40;99.90;;;;;;5052799;28;20213;-80
2023/08/31 04:30:50;;;;;;;13.18;11.38;;;12.40;99.90;;;;;;5049882;28;20202;-80
2023/08/31 04:33:18;;;;;;;16.80;12.93;;;12.40;99.90;;;;;;5055119;28;20194;-80
2023/08/31 04:35:46;;;;;;;14.70;12.23;;;12.30;99.90;;;;;;5050324;28;20208;-80
2023/08/31 04:38:13;;;;;;;18.30;13.17;;;12.30;99.90;;;;;;5053180;28;20221;-80
2023/08/31 04:40:41;;;;;;;17.53;13.63;;;12.30;99.90;;;;;;5041305;28;20213;-80
2023/08/31 04:43:08;;;;;;;18.97;14.50;;;12.30;99.90;;;;;;5052777;28;20251;-80
2023/08/31 04:45:35;;;;;;;18.83;14.53;;;12.30;99.90;;;;;;5068363;28;20200;-80
2023/08/31 04:48:05;;;;;;;18.17;13.37;;;12.30;99.90;;;;;;5066306;28;20222;-81
2023/08/31 04:50:32;;;;;;;16.80;14.13;;;12.40;99.90;;;;;;5036438;28;20205;-80
2023/08/31 04:53:00;;;;;;;16.90;14.03;;;12.40;99.90;;;;;;5053505;28;20680;-80
2023/08/31 04:55:31;;;;;;;21.17;13.63;;;12.40;99.90;;;;;;5052517;28;20198;-80
2023/08/31 04:57:59;;;;;;;19.90;14.30;;;12.40;99.90;;;;;;5042409;28;20249;-80
2023/08/31 05:00:26;;;;;;;19.93;13.80;;;12.30;99.90;;;;;;5044736;28;20198;-80
2023/08/31 05:02:54;;;;;;;18.10;14.07;;;12.30;99.90;;;;;;5059971;28;20202;-80
2023/08/31 05:05:35;;;;;;;16.83;13.80;;;12.30;99.90;;;;;;5050563;28;20194;-80
2023/08/31 05:08:04;;;;;;;17.87;13.77;;;12.30;99.90;;;;;;5056802;28;20236;-80
2023/08/31 05:10:32;;;;;;;20.27;15.23;;;12.30;99.90;;;;;;5048698;28;20206;-80
2023/08/31 05:12:59;;;;;;;19.03;14.67;;;12.30;99.90;;;;;;5045760;28;20201;-80
2023/08/31 05:15:28;;;;;;;20.60;15.20;;;12.30;99.90;;;;;;5046782;28;20198;-80
2023/08/31 05:17:56;;;;;;;23.37;15.33;;;12.30;99.90;;;;;;5042345;28;20222;-80
2023/08/31 05:20:48;;;;;;;20.13;14.27;;;12.30;99.90;;;;;;5040586;28;20550;-80
2023/08/31 05:23:18;;;;;;;20.87;16.03;;;12.20;99.90;;;;;;5049409;28;20201;-80
2023/08/31 05:25:46;;;;;;;22.23;16.10;;;12.20;99.90;;;;;;5044331;28;20663;-80
2023/08/31 05:29:08;;;;;;;23.43;16.77;;;12.30;99.90;;;;;;5021530;28;20213;-80
2023/08/31 05:31:36;;;;;;;19.20;15.80;;;12.40;99.90;;;;;;4987425;28;20203;-81
2023/08/31 05:34:04;;;;;;;22.37;15.20;;;12.50;99.90;;;;;;4990949;28;20227;-80
2023/08/31 05:36:33;;;;;;;19.23;15.37;;;12.40;99.90;;;;;;5001851;28;20200;-80
2023/08/31 05:39:00;;;;;;;18.27;15.33;;;12.50;99.90;;;;;;4991335;28;20228;-80
2023/08/31 05:41:28;;;;;;;22.60;16.57;;;12.60;99.90;;;;;;4996275;28;20203;-81
2023/08/31 05:43:55;;;;;;;20.80;15.93;;;12.50;99.90;;;;;;4990394;28;20209;-80
2023/08/31 05:46:22;;;;;;;18.67;15.83;;;12.50;99.90;;;;;;4976336;28;20209;-80
2023/08/31 05:48:50;;;;;;;21.23;16.65;;;12.50;99.90;;;;;;4986083;28;20704;-80
2023/08/31 05:51:17;;;;;;;25.53;18.57;;;12.50;99.90;;;;;;5010204;28;20203;-80
2023/08/31 05:53:46;;;;;;;20.58;16.17;;;12.60;99.90;;;;;;5010400;28;20210;-81
2023/08/31 05:56:13;;;;;;;18.23;15.63;;;12.60;99.90;;;;;;4990947;28;20219;-81
2023/08/31 05:58:41;;;;;;;18.27;15.37;;;12.60;99.90;;;;;;4988897;28;20238;-80
2023/08/31 06:01:08;;;;;;;17.17;15.43;;;12.60;99.90;;;;;;4991758;28;20208;-80
2023/08/31 06:03:36;;;;;;;18.40;15.77;;;12.70;99.90;;;;;;4996389;28;20193;-81
2023/08/31 06:06:04;;;;;;;18.83;15.45;;;12.70;99.90;;;;;;4990909;28;20203;-80
2023/08/31 06:08:31;;;;;;;17.75;15.00;;;12.70;99.90;;;;;;5010094;28;20713;-81
2023/08/31 06:11:00;;;;;;;19.77;15.35;;;12.80;99.90;;;;;;4988868;28;20212;-80
2023/08/31 06:13:28;;;;;;;16.90;14.17;;;12.90;99.90;;;;;;4984228;28;20196;-80
2023/08/31 06:15:57;;;;;;;16.40;13.77;;;13.00;99.90;;;;;;4993124;28;20684;-80
2023/08/31 06:18:25;;;;;;;13.93;12.32;;;13.10;99.90;;;;;;5002888;28;20821;-80
2023/08/31 06:20:52;;;;;;;16.33;12.55;;;13.10;99.90;;;;;;4997679;28;20211;-80
2023/08/31 06:23:20;;;;;;;15.70;11.82;;;13.20;99.90;;;;;;4994009;28;20203;-80
2023/08/31 06:25:47;;;;;;;14.93;12.18;;;13.20;99.90;;;;;;4989719;28;20208;-80
2023/08/31 06:28:16;;;;;;;13.73;11.38;;;13.20;99.90;;;;;;5015090;28;20220;-80
2023/08/31 06:30:46;;;;;;;11.55;10.45;;;13.20;99.90;;;;;;4993881;28;20223;-80
2023/08/31 06:33:13;;;;;;;12.25;10.63;;;13.20;99.90;;;;;;4994180;28;20199;-80
2023/08/31 06:35:41;;;;;;;11.68;10.35;;;13.20;99.90;;;;;;4990702;28;20208;-80
2023/08/31 06:38:10;;;;;;;12.90;10.52;;;13.30;99.90;;;;;;4980958;28;20580;-80
2023/08/31 06:40:38;;;;;;;10.85;9.77;;;13.30;99.90;;;;;;5007907;28;20219;-81
2023/08/31 06:43:05;;;;;;;13.80;10.13;;;13.30;99.90;;;;;;5011273;28;20207;-81
2023/08/31 06:45:34;;;;;;;12.23;9.17;;;13.30;99.90;;;;;;4993146;28;20212;-80
2023/08/31 06:48:02;;;;;;;11.63;8.77;;;13.30;99.90;;;;;;5011550;28;20236;-80
2023/08/31 06:50:30;;;;;;;9.63;8.50;;;13.40;99.90;;;;;;4988791;28;20200;-80
2023/08/31 06:52:57;;;;;;;10.98;8.77;;;13.40;99.90;;;;;;5002941;28;20211;-80
2023/08/31 06:55:24;;;;;;;9.73;8.55;;;13.50;99.90;;;;;;4986550;28;20590;-80
2023/08/31 06:57:52;;;;;;;10.15;8.50;;;13.50;99.90;;;;;;4987494;28;20223;-80
2023/08/31 07:00:40;;;;;;;9.95;7.50;;;13.50;99.90;;;;;;5001773;28;20223;-80
2023/08/31 07:03:07;;;;;;;9.77;7.70;;;13.70;99.90;;;;;;5000057;28;20214;-80
2023/08/31 07:05:42;;;;;;;8.57;7.60;;;13.60;99.90;;;;;;4982650;28;20586;-80
2023/08/31 07:08:09;;;;;;;10.20;7.60;;;13.60;99.90;;;;;;4989482;28;20234;-80
2023/08/31 07:10:37;;;;;;;9.23;7.32;;;13.70;99.90;;;;;;5007175;28;20662;-80
2023/08/31 07:13:04;;;;;;;9.88;7.05;;;13.80;99.90;;;;;;4996780;28;20192;-80
2023/08/31 07:15:33;;;;;;;9.15;6.25;;;13.80;99.90;;;;;;4989986;28;20204;-80
2023/08/31 07:18:02;;;;;;;7.97;6.03;;;13.90;99.90;;;;;;4990193;28;20613;-80
2023/08/31 07:20:29;;;;;;;6.78;5.78;;;13.90;99.90;;;;;;4989783;28;20222;-80
2023/08/31 07:22:57;;;;;;;8.55;5.78;;;14.00;99.90;;;;;;4985406;28;20223;-80
2023/08/31 07:25:24;;;;;;;9.02;6.00;;;13.90;99.90;;;;;;4988747;28;20679;-80
2023/08/31 07:27:52;;;;;;;6.80;5.85;;;14.00;99.90;;;;;;4993897;28;20223;-83
2023/08/31 07:30:19;;;;;;;7.70;6.00;;;14.10;99.90;;;;;;4988945;28;20196;-79
2023/08/31 07:32:47;;;;;;;6.57;5.30;;;14.10;99.90;;;;;;4992711;28;20207;-81
2023/08/31 07:35:15;;;;;;;9.73;5.80;;;14.30;99.90;;;;;;4990799;28;20204;-81
2023/08/31 07:37:43;;;;;;;6.45;5.05;;;14.40;99.90;;;;;;5012716;28;20723;-82
2023/08/31 07:40:16;;;;;;;6.40;5.43;;;14.50;99.90;;;;;;4992711;28;20213;-81
2023/08/31 07:42:44;;;;;;;6.80;5.53;;;14.50;99.90;;;;;;4990821;28;20601;-83
2023/08/31 07:45:11;;;;;;;7.03;4.75;;;14.40;99.90;;;;;;4993573;28;20204;-80
2023/08/31 07:47:39;;;;;;;9.07;5.25;;;14.30;99.90;;;;;;4993058;28;20227;-80
2023/08/31 07:50:08;;;;;;;6.20;5.20;;;14.30;99.90;;;;;;4992806;28;20219;-80
2023/08/31 07:52:38;;;;;;;7.88;4.50;;;14.30;99.90;;;;;;5004166;28;20205;-80
2023/08/31 07:55:06;;;;;;;8.40;4.97;;;14.40;99.90;;;;;;4977785;28;20208;-80
2023/08/31 07:57:34;;;;;;;6.25;4.68;;;14.40;99.90;;;;;;5005950;28;20223;-80
2023/08/31 08:00:01;;;;;;;5.90;4.38;;;14.50;99.90;;;;;;4995265;28;20215;-80
2023/08/31 08:02:28;;;;;;;5.57;3.97;;;14.50;99.90;;;;;;5017736;28;20205;-80
2023/08/31 08:04:56;;;;;;;4.82;3.42;;;14.60;99.90;;;;;;4997270;28;20283;-80
2023/08/31 08:07:23;;;;;;;5.40;4.05;;;14.50;99.90;;;;;;4999291;28;20237;-80
2023/08/31 08:09:52;;;;;;;6.47;3.60;;;14.60;99.90;;;;;;4995580;28;20200;-80
2023/08/31 08:12:22;;;;;;;5.35;3.47;;;14.70;99.90;;;;;;5012141;28;20203;-80
2023/08/31 08:14:49;;;;;;;5.30;4.05;;;14.80;99.90;;;;;;4997401;28;20211;-80
2023/08/31 08:17:17;;;;;;;6.95;3.03;;;15.00;99.90;;;;;;5017683;28;20687;-80
2023/08/31 08:19:44;;;;;;;6.05;3.30;;;15.10;99.90;;;;;;4996747;28;20226;-80
2023/08/31 08:22:12;;;;;;;3.35;2.97;;;15.20;99.90;;;;;;5003346;28;20203;-80
2023/08/31 08:24:39;;;;;;;4.55;3.30;;;15.30;99.90;;;;;;4989665;28;20227;-80
2023/08/31 08:27:08;;;;;;;6.53;3.22;;;15.50;99.90;;;;;;5003300;28;20199;-80
2023/08/31 08:29:35;;;;;;;4.88;3.22;;;15.60;99.90;;;;;;5010809;28;20578;-80
2023/08/31 08:32:13;;;;;;;7.18;2.72;;;15.60;99.90;;;;;;5009447;28;20212;-79
2023/08/31 08:34:40;;;;;;;4.70;2.60;;;15.60;99.90;;;;;;4994006;28;20214;-80
2023/08/31 08:37:08;;;;;;;3.20;2.90;;;15.80;99.90;;;;;;4986811;28;20235;-79
2023/08/31 08:39:35;;;;;;;3.75;3.13;;;15.80;1.00;;;;;;4991098;28;20227;-79
2023/08/31 08:42:05;;;;;;;3.00;2.40;;;15.90;1.00;;;;;;4992005;28;20227;-79
2023/08/31 08:44:36;;;;;;;3.13;2.50;;;15.90;1.00;;;;;;4992119;28;20662;-79
2023/08/31 08:47:04;;;;;;;5.25;2.40;;;15.90;99.90;;;;;;4986428;28;20215;-80
2023/08/31 08:49:33;;;;;;;5.30;2.60;;;15.90;99.90;;;;;;4989878;28;20204;-80
2023/08/31 08:52:01;;;;;;;3.05;2.70;;;16.00;99.90;;;;;;4990772;28;20205;-80
2023/08/31 08:54:28;;;;;;;6.13;3.45;;;16.10;1.00;;;;;;4994842;28;20203;-80
2023/08/31 08:56:56;;;;;;;5.15;3.50;;;16.10;1.00;;;;;;4995472;28;20214;-80
2023/08/31 08:59:25;;;;;;;5.75;2.95;;;16.10;1.00;;;;;;5001371;28;20199;-80
2023/08/31 09:01:54;;;;;;;5.50;3.40;;;16.30;1.00;;;;;;4996452;28;20208;-80
2023/08/31 09:04:22;;;;;;;4.60;3.30;;;16.50;1.00;;;;;;4991107;28;20696;-80
2023/08/31 09:06:54;;;;;;;5.43;3.47;;;16.50;99.90;;;;;;4989103;28;20206;-80
2023/08/31 09:09:22;;;;;;;4.20;3.28;;;16.40;38.10;;;;;;4997653;28;20679;-80
2023/08/31 09:11:50;;;;;;;5.25;2.95;;;16.50;99.90;;;;;;4996341;28;20204;-80
2023/08/31 09:14:20;;;;;;;5.22;3.28;;;16.50;99.90;;;;;;4990761;28;20219;-80
2023/08/31 09:16:48;;;;;;;4.80;3.40;;;16.60;1.00;;;;;;4995677;28;20219;-80
2023/08/31 09:19:24;;;;;;;6.40;3.72;;;16.60;99.90;;;;;;4991721;28;20207;-80
2023/08/31 09:21:53;;;;;;;4.10;3.20;;;16.50;99.90;;;;;;4980466;28;20227;-80
2023/08/31 09:24:23;;;;;;;5.85;3.72;;;16.50;99.90;;;;;;4989226;28;20223;-80
2023/08/31 09:26:56;;;;;;;5.00;3.55;;;16.50;1.00;;;;;;4992908;28;20204;-80
2023/08/31 09:29:23;;;;;;;4.38;3.55;;;16.40;1.00;;;;;;4986483;28;20678;-80
2023/08/31 09:31:51;;;;;;;3.80;3.30;;;16.50;1.00;;;;;;4992926;28;20211;-80
2023/08/31 09:34:19;;;;;;;4.00;3.35;;;16.60;99.90;;;;;;4980905;28;20207;-79
2023/08/31 09:36:50;;;;;;;4.47;3.28;;;16.60;1.00;;;;;;5001056;28;20211;-80
2023/08/31 09:39:17;;;;;;;5.25;3.10;;;16.60;6.80;;;;;;4993979;28;20203;-80
2023/08/31 09:41:54;;;;;;;3.08;2.40;;;16.70;99.90;;;;;;4995497;28;20232;-80
2023/08/31 09:44:22;;;;;;;3.35;2.92;;;16.70;99.90;;;;;;5008420;28;20200;-80
2023/08/31 09:46:50;;;;;;;4.32;3.00;;;16.70;1.00;;;;;;4995753;28;20211;-80
2023/08/31 09:49:18;;;;;;;4.18;2.45;;;16.70;1.00;;;;;;4989822;28;20220;-80
2023/08/31 09:51:49;;;;;;;5.95;3.20;;;16.90;1.00;;;;;;4980541;28;20649;-80
2023/08/31 09:54:18;;;;;;;5.47;2.97;;;17.00;99.90;;;;;;4994149;28;20207;-80
2023/08/31 09:56:47;;;;;;;5.55;3.22;;;17.00;1.00;;;;;;4983003;28;20212;-80
2023/08/31 09:59:16;;;;;;;4.35;3.22;;;17.00;1.00;;;;;;4985816;28;20682;-80
2023/08/31 10:01:45;;;;;;;4.60;2.95;;;17.10;99.90;;;;;;4981327;28;20231;-80
2023/08/31 10:04:13;;;;;;;4.03;3.13;;;17.10;1.00;;;;;;4984313;28;20211;-80
2023/08/31 10:06:41;;;;;;;4.05;2.80;;;17.20;84.30;;;;;;5010804;28;20211;-80
2023/08/31 10:09:11;;;;;;;4.38;2.42;;;17.10;99.90;;;;;;4987360;28;20220;-80
2023/08/31 10:11:39;;;;;;;2.83;2.53;;;17.10;99.90;;;;;;4990510;28;20715;-80
2023/08/31 10:14:08;;;;;;;4.82;2.67;;;17.10;99.90;;;;;;5004162;28;20666;-80
2023/08/31 10:16:37;;;;;;;3.38;2.40;;;17.10;12.20;;;;;;4993237;28;20207;-82
2023/08/31 10:19:05;;;;;;;3.33;2.45;;;17.20;99.90;;;;;;4988111;28;20224;-82
2023/08/31 10:21:33;;;;;;;3.88;1.70;;;17.30;1.00;;;;;;4985081;28;20227;-82
2023/08/31 10:24:04;;;;;;;2.30;2.10;;;17.40;16.40;;;;;;4992939;28;20208;-82
2023/08/31 10:26:34;;;;;;;5.35;2.25;;;17.60;1.00;;;;;;4983686;28;20203;-82
2023/08/31 10:29:02;;;;;;;4.25;2.10;;;17.90;1.00;;;;;;4990149;28;20569;-82
2023/08/31 10:31:31;;;;;;;4.78;1.95;;;18.10;1.00;;;;;;4990184;28;20200;-82
2023/08/31 10:33:59;;;;;;;5.50;2.20;;;18.30;99.90;;;;;;4991247;28;20207;-82
2023/08/31 10:36:40;;;;;;;6.18;2.35;;;18.50;99.90;;;;;;4993251;28;20207;-82
2023/08/31 10:39:13;;;;;;;3.10;1.95;;;18.30;99.90;;;;;;4986857;28;20223;-82
2023/08/31 10:41:42;;;;;;;2.75;2.10;;;18.20;99.90;;;;;;4981321;28;20239;-81
2023/08/31 10:44:20;;;;;;;7.05;2.20;;;18.30;95.40;;;;;;5006872;28;20215;-81
2023/08/31 10:46:49;;;;;;;3.22;2.30;;;18.30;79.50;;;;;;5009087;28;20207;-82
2023/08/31 10:49:17;;;;;;;6.45;2.28;;;18.10;99.90;;;;;;4988722;28;20208;-81
2023/08/31 10:51:46;;;;;;;4.30;2.05;;;18.30;99.90;;;;;;4988657;28;20210;-81
2023/08/31 10:54:21;;;;;;;2.15;1.38;;;18.60;99.90;;;;;;4981981;28;20204;-82
2023/08/31 10:57:06;;;;;;;2.67;2.00;;;18.60;1.00;;;;;;4993097;28;20204;-81
2023/08/31 10:59:48;;;;;;;3.47;1.60;;;18.70;1.00;;;;;;5010209;28;20203;-81
2023/08/31 11:02:29;;;;;;;3.28;2.00;;;18.50;1.00;;;;;;5005969;28;20219;-81
2023/08/31 11:05:00;;;;;;;3.25;2.17;;;18.50;1.00;;;;;;4994109;28;20211;-82
2023/08/31 11:07:29;;;;;;;3.92;1.92;;;18.60;7.70;;;;;;4995990;28;20230;-82
2023/08/31 11:10:12;;;;;;;6.00;2.28;;;18.80;28.70;;;;;;4990008;28;20208;-82
2023/08/31 11:12:48;;;;;;;4.78;2.10;;;19.10;2.60;;;;;;4986451;28;20558;-82
2023/08/31 11:15:16;;;;;;;3.40;1.38;;;19.20;1.00;;;;;;4990823;28;20208;-81
2023/08/31 11:17:46;;;;;;;3.90;1.50;;;19.30;1.00;;;;;;4986342;28;20224;-81
2023/08/31 11:20:18;;;;;;;3.00;1.88;;;19.40;1.00;;;;;;4984736;28;20204;-81
2023/08/31 11:22:49;;;;;;;2.50;1.67;;;19.50;1.00;;;;;;4990348;28;20731;-82
2023/08/31 11:25:17;;;;;;;2.58;1.90;;;19.50;1.00;;;;;;4988838;28;20204;-82
2023/08/31 11:27:55;;;;;;;5.70;1.95;;;19.40;1.00;;;;;;4987979;28;20232;-82
2023/08/31 11:30:23;;;;;;;2.67;2.00;;;19.40;1.00;;;;;;4993212;28;20709;-82
2023/08/31 11:32:53;;;;;;;3.05;2.30;;;19.50;1.00;;;;;;4982546;28;20211;-82
2023/08/31 11:35:21;;;;;;;3.85;2.00;;;19.40;1.00;;;;;;4989605;28;20199;-82
2023/08/31 11:37:51;;;;;;;2.15;1.92;;;19.20;1.00;;;;;;4988634;28;20232;-82
2023/08/31 11:40:18;;;;;;;4.35;2.38;;;19.20;1.00;;;;;;4990090;28;20207;-81
2023/08/31 11:42:48;;;;;;;6.95;1.80;;;19.30;1.00;;;;;;4988614;28;20598;-82
2023/08/31 11:45:17;;;;;;;3.25;1.70;;;19.60;1.00;;;;;;4982308;28;20210;-82
2023/08/31 11:47:45;;;;;;;2.70;1.90;;;20.00;1.00;;;;;;4986089;28;20246;-82
2023/08/31 11:50:15;;;;;;;2.08;1.50;;;19.70;1.00;;;;;;4987690;28;20215;-81
2023/08/31 11:52:43;;;;;;;4.32;1.80;;;19.70;1.00;;;;;;4981356;28;20208;-81
2023/08/31 11:55:14;;;;;;;2.08;1.67;;;19.50;1.00;;;;;;4985735;28;20204;-81
2023/08/31 11:57:49;;;;;;;3.65;1.83;;;19.70;1.00;;;;;;4993694;28;20716;-81
2023/08/31 12:00:20;;;;;;;3.45;1.50;;;20.00;1.00;;;;;;4991436;28;20215;-82
2023/08/31 12:02:56;;;;;;;5.05;1.70;;;19.80;1.00;;;;;;5010042;28;20555;-82
2023/08/31 12:05:24;;;;;;;4.70;1.92;;;19.90;1.00;;;;;;5012584;28;20676;-82
2023/08/31 12:07:54;;;;;;;3.67;1.45;;;20.10;1.00;;;;;;4992412;28;20231;-82
2023/08/31 12:10:21;;;;;;;3.47;1.45;;;19.90;1.00;;;;;;5009979;28;20196;-82
2023/08/31 12:12:49;;;;;;;3.88;1.60;;;19.90;1.00;;;;;;4996860;28;20195;-82
2023/08/31 12:15:16;;;;;;;3.65;1.50;;;20.00;1.00;;;;;;5001467;28;20222;-82
2023/08/31 12:17:53;;;;;;;5.55;2.20;;;20.30;1.00;;;;;;4990517;28;20247;-82
2023/08/31 12:20:26;;;;;;;3.88;1.80;;;20.30;1.00;;;;;;4996724;28;20203;-81
2023/08/31 12:22:53;;;;;;;2.53;1.42;;;20.20;1.00;;;;;;4998947;28;20220;-82
2023/08/31 12:25:21;;;;;;;4.20;2.00;;;20.50;1.00;;;;;;4990969;28;20331;-82
2023/08/31 12:27:49;;;;;;;5.57;2.42;;;20.40;1.00;;;;;;4991282;28;20238;-82
2023/08/31 12:30:17;;;;;;;5.97;2.08;;;20.40;1.00;;;;;;4991075;28;20215;-81
2023/08/31 12:32:46;;;;;;;3.80;2.40;;;20.50;1.00;;;;;;4991668;28;20207;-80
2023/08/31 12:35:14;;;;;;;4.10;2.40;;;20.30;1.00;;;;;;4982248;28;20666;-80
2023/08/31 12:37:41;;;;;;;4.28;2.53;;;20.40;1.00;;;;;;4992654;28;20224;-81
2023/08/31 12:40:10;;;;;;;4.25;2.40;;;20.10;1.00;;;;;;4993712;28;20200;-80
2023/08/31 12:42:46;;;;;;;3.97;1.83;;;20.10;1.00;;;;;;4992683;28;20215;-80
2023/08/31 12:45:14;;;;;;;3.70;1.88;;;19.80;1.00;;;;;;4992578;28;20215;-81
2023/08/31 12:47:41;;;;;;;2.85;1.88;;;20.00;1.00;;;;;;4989617;28;20243;-81
2023/08/31 12:50:11;;;;;;;4.35;1.92;;;19.90;1.00;;;;;;4977379;28;20200;-80
2023/08/31 12:52:44;;;;;;;3.20;2.00;;;20.00;1.00;;;;;;4994459;28;20192;-83
2023/08/31 12:55:11;;;;;;;3.85;1.90;;;20.20;1.00;;;;;;5008874;28;20200;-81
2023/08/31 12:57:39;;;;;;;2.90;2.03;;;20.30;1.00;;;;;;4993646;28;20218;-81